sensor_id;sensor_type;location;lat;lon;timestamp;P1;durP1;ratioP1;P2;durP2;ratioP2
69083;SDS011;56185;48.526;9.044;2023-08-24T00:01:38;9.03;;;4.77;;
69083;SDS011;56185;48.526;9.044;2023-08-24T00:04:03;6.73;;;4.60;;
69083;SDS011;56185;48.526;9.044;2023-08-24T00:06:28;6.13;;;4.50;;
69083;SDS011;56185;48.526;9.044;2023-08-24T00:08:54;5.00;;;4.30;;
69083;SDS011;56185;48.526;9.044;2023-08-24T00:11:19;7.10;;;5.00;;
69083;SDS011;56185;48.526;9.044;2023-08-24T00:13:44;7.05;;;4.72;;
69083;SDS011;56185;48.526;9.044;2023-08-24T00:16:10;10.40;;;5.30;;
69083;SDS011;56185;48.526;9.044;2023-08-24T00:18:35;9.33;;;5.23;;
69083;SDS011;56185;48.526;9.044;2023-08-24T00:21:00;7.93;;;5.03;;
69083;SDS011;56185;48.526;9.044;2023-08-24T00:23:25;6.37;;;4.70;;
69083;SDS011;56185;48.526;9.044;2023-08-24T00:25:51;7.90;;;5.03;;
69083;SDS011;56185;48.526;9.044;2023-08-24T00:28:16;7.43;;;5.00;;
69083;SDS011;56185;48.526;9.044;2023-08-24T00:30:41;5.73;;;5.10;;
69083;SDS011;56185;48.526;9.044;2023-08-24T00:33:06;7.90;;;5.10;;
69083;SDS011;56185;48.526;9.044;2023-08-24T00:35:32;7.60;;;5.03;;
69083;SDS011;56185;48.526;9.044;2023-08-24T00:37:57;8.13;;;4.87;;
69083;SDS011;56185;48.526;9.044;2023-08-24T00:40:22;8.97;;;5.10;;
69083;SDS011;56185;48.526;9.044;2023-08-24T00:42:47;8.05;;;4.80;;
69083;SDS011;56185;48.526;9.044;2023-08-24T00:45:13;8.87;;;4.63;;
69083;SDS011;56185;48.526;9.044;2023-08-24T00:47:39;5.60;;;4.57;;
69083;SDS011;56185;48.526;9.044;2023-08-24T00:50:08;7.15;;;4.75;;
69083;SDS011;56185;48.526;9.044;2023-08-24T00:52:35;4.97;;;4.22;;
69083;SDS011;56185;48.526;9.044;2023-08-24T00:55:02;10.95;;;4.80;;
69083;SDS011;56185;48.526;9.044;2023-08-24T00:57:28;7.38;;;4.60;;
69083;SDS011;56185;48.526;9.044;2023-08-24T00:59:57;7.68;;;4.90;;
69083;SDS011;56185;48.526;9.044;2023-08-24T01:02:24;6.30;;;4.75;;
69083;SDS011;56185;48.526;9.044;2023-08-24T01:04:49;9.18;;;5.00;;
69083;SDS011;56185;48.526;9.044;2023-08-24T01:07:15;6.72;;;4.72;;
69083;SDS011;56185;48.526;9.044;2023-08-24T01:09:42;9.40;;;5.10;;
69083;SDS011;56185;48.526;9.044;2023-08-24T01:17:18;6.30;;;4.88;;
69083;SDS011;56185;48.526;9.044;2023-08-24T01:19:48;7.95;;;4.97;;
69083;SDS011;56185;48.526;9.044;2023-08-24T01:25:05;6.25;;;4.80;;
69083;SDS011;56185;48.526;9.044;2023-08-24T01:27:36;10.35;;;4.65;;
69083;SDS011;56185;48.526;9.044;2023-08-24T01:30:02;9.82;;;5.00;;
69083;SDS011;56185;48.526;9.044;2023-08-24T01:32:29;8.43;;;4.82;;
69083;SDS011;56185;48.526;9.044;2023-08-24T01:34:55;9.43;;;4.75;;
69083;SDS011;56185;48.526;9.044;2023-08-24T01:37:20;6.40;;;4.97;;
69083;SDS011;56185;48.526;9.044;2023-08-24T01:39:47;7.47;;;5.30;;
69083;SDS011;56185;48.526;9.044;2023-08-24T01:42:20;8.38;;;4.80;;
69083;SDS011;56185;48.526;9.044;2023-08-24T01:44:47;7.05;;;4.55;;
69083;SDS011;56185;48.526;9.044;2023-08-24T01:47:15;6.55;;;4.85;;
69083;SDS011;56185;48.526;9.044;2023-08-24T01:49:42;5.95;;;4.50;;
69083;SDS011;56185;48.526;9.044;2023-08-24T01:52:08;6.00;;;4.82;;
69083;SDS011;56185;48.526;9.044;2023-08-24T01:54:35;7.03;;;5.38;;
69083;SDS011;56185;48.526;9.044;2023-08-24T01:57:00;9.93;;;4.78;;
69083;SDS011;56185;48.526;9.044;2023-08-24T01:59:25;5.90;;;4.60;;
69083;SDS011;56185;48.526;9.044;2023-08-24T02:01:51;5.83;;;4.50;;
69083;SDS011;56185;48.526;9.044;2023-08-24T02:04:16;5.83;;;4.47;;
69083;SDS011;56185;48.526;9.044;2023-08-24T02:06:41;6.43;;;4.60;;
69083;SDS011;56185;48.526;9.044;2023-08-24T02:09:06;5.23;;;4.47;;
69083;SDS011;56185;48.526;9.044;2023-08-24T02:11:32;7.77;;;4.83;;
69083;SDS011;56185;48.526;9.044;2023-08-24T02:13:57;8.07;;;4.67;;
69083;SDS011;56185;48.526;9.044;2023-08-24T02:16:22;9.43;;;4.73;;
69083;SDS011;56185;48.526;9.044;2023-08-24T02:18:47;8.93;;;4.70;;
69083;SDS011;56185;48.526;9.044;2023-08-24T02:21:12;7.73;;;4.87;;
69083;SDS011;56185;48.526;9.044;2023-08-24T02:23:38;7.83;;;4.83;;
69083;SDS011;56185;48.526;9.044;2023-08-24T02:26:04;5.78;;;4.85;;
69083;SDS011;56185;48.526;9.044;2023-08-24T02:28:29;7.13;;;4.72;;
69083;SDS011;56185;48.526;9.044;2023-08-24T02:30:54;5.82;;;4.43;;
69083;SDS011;56185;48.526;9.044;2023-08-24T02:33:25;7.45;;;4.97;;
69083;SDS011;56185;48.526;9.044;2023-08-24T02:35:50;7.20;;;4.80;;
69083;SDS011;56185;48.526;9.044;2023-08-24T02:38:15;6.90;;;4.78;;
69083;SDS011;56185;48.526;9.044;2023-08-24T02:40:41;7.63;;;4.93;;
69083;SDS011;56185;48.526;9.044;2023-08-24T02:43:06;6.90;;;4.80;;
69083;SDS011;56185;48.526;9.044;2023-08-24T02:45:31;6.93;;;4.80;;
69083;SDS011;56185;48.526;9.044;2023-08-24T02:47:56;8.93;;;5.40;;
69083;SDS011;56185;48.526;9.044;2023-08-24T02:50:22;6.67;;;4.60;;
69083;SDS011;56185;48.526;9.044;2023-08-24T02:52:47;8.10;;;4.60;;
69083;SDS011;56185;48.526;9.044;2023-08-24T02:55:12;5.90;;;4.60;;
69083;SDS011;56185;48.526;9.044;2023-08-24T02:57:37;7.22;;;4.75;;
69083;SDS011;56185;48.526;9.044;2023-08-24T03:00:03;6.93;;;4.77;;
69083;SDS011;56185;48.526;9.044;2023-08-24T03:02:29;5.07;;;4.57;;
69083;SDS011;56185;48.526;9.044;2023-08-24T03:04:54;8.00;;;4.93;;
69083;SDS011;56185;48.526;9.044;2023-08-24T03:07:20;6.93;;;4.90;;
69083;SDS011;56185;48.526;9.044;2023-08-24T03:09:45;8.30;;;4.93;;
69083;SDS011;56185;48.526;9.044;2023-08-24T03:12:10;8.73;;;4.73;;
69083;SDS011;56185;48.526;9.044;2023-08-24T03:14:35;7.37;;;5.07;;
69083;SDS011;56185;48.526;9.044;2023-08-24T03:17:01;5.93;;;5.30;;
69083;SDS011;56185;48.526;9.044;2023-08-24T03:19:26;5.97;;;4.83;;
69083;SDS011;56185;48.526;9.044;2023-08-24T03:21:51;6.90;;;4.87;;
69083;SDS011;56185;48.526;9.044;2023-08-24T03:24:16;7.50;;;5.13;;
69083;SDS011;56185;48.526;9.044;2023-08-24T03:26:42;5.40;;;4.85;;
69083;SDS011;56185;48.526;9.044;2023-08-24T03:29:07;6.27;;;4.83;;
69083;SDS011;56185;48.526;9.044;2023-08-24T03:31:32;8.40;;;5.27;;
69083;SDS011;56185;48.526;9.044;2023-08-24T03:33:57;6.00;;;5.07;;
69083;SDS011;56185;48.526;9.044;2023-08-24T03:36:22;6.83;;;5.03;;
69083;SDS011;56185;48.526;9.044;2023-08-24T03:38:48;5.90;;;4.70;;
69083;SDS011;56185;48.526;9.044;2023-08-24T03:41:13;7.53;;;5.30;;
69083;SDS011;56185;48.526;9.044;2023-08-24T03:43:38;6.87;;;5.23;;
69083;SDS011;56185;48.526;9.044;2023-08-24T03:46:04;10.60;;;5.50;;
69083;SDS011;56185;48.526;9.044;2023-08-24T03:48:29;5.70;;;5.07;;
69083;SDS011;56185;48.526;9.044;2023-08-24T03:50:55;9.43;;;5.50;;
69083;SDS011;56185;48.526;9.044;2023-08-24T03:53:20;7.55;;;5.63;;
69083;SDS011;56185;48.526;9.044;2023-08-24T03:55:50;9.05;;;6.20;;
69083;SDS011;56185;48.526;9.044;2023-08-24T03:58:15;7.40;;;5.07;;
69083;SDS011;56185;48.526;9.044;2023-08-24T04:00:41;7.40;;;5.25;;
69083;SDS011;56185;48.526;9.044;2023-08-24T04:03:06;9.13;;;5.32;;
69083;SDS011;56185;48.526;9.044;2023-08-24T04:05:32;9.23;;;5.60;;
69083;SDS011;56185;48.526;9.044;2023-08-24T04:07:57;10.73;;;5.70;;
69083;SDS011;56185;48.526;9.044;2023-08-24T04:10:22;7.33;;;5.43;;
69083;SDS011;56185;48.526;9.044;2023-08-24T04:12:47;16.97;;;5.73;;
69083;SDS011;56185;48.526;9.044;2023-08-24T04:15:13;7.27;;;5.50;;
69083;SDS011;56185;48.526;9.044;2023-08-24T04:17:38;6.20;;;5.20;;
69083;SDS011;56185;48.526;9.044;2023-08-24T04:20:03;7.47;;;4.87;;
69083;SDS011;56185;48.526;9.044;2023-08-24T04:22:29;7.18;;;5.32;;
69083;SDS011;56185;48.526;9.044;2023-08-24T04:24:54;7.83;;;5.33;;
69083;SDS011;56185;48.526;9.044;2023-08-24T04:27:19;6.80;;;5.40;;
69083;SDS011;56185;48.526;9.044;2023-08-24T04:29:45;5.93;;;5.10;;
69083;SDS011;56185;48.526;9.044;2023-08-24T04:32:10;6.47;;;5.67;;
69083;SDS011;56185;48.526;9.044;2023-08-24T04:34:35;8.90;;;5.80;;
69083;SDS011;56185;48.526;9.044;2023-08-24T04:37:00;7.70;;;5.73;;
69083;SDS011;56185;48.526;9.044;2023-08-24T04:39:26;7.17;;;5.33;;
69083;SDS011;56185;48.526;9.044;2023-08-24T04:41:51;6.97;;;5.70;;
69083;SDS011;56185;48.526;9.044;2023-08-24T04:44:16;9.40;;;6.50;;
69083;SDS011;56185;48.526;9.044;2023-08-24T04:46:41;6.83;;;5.30;;
69083;SDS011;56185;48.526;9.044;2023-08-24T04:49:06;10.43;;;6.17;;
69083;SDS011;56185;48.526;9.044;2023-08-24T04:51:32;9.67;;;5.60;;
69083;SDS011;56185;48.526;9.044;2023-08-24T04:53:57;5.83;;;5.23;;
69083;SDS011;56185;48.526;9.044;2023-08-24T04:56:22;7.57;;;5.30;;
69083;SDS011;56185;48.526;9.044;2023-08-24T04:58:57;8.73;;;5.53;;
69083;SDS011;56185;48.526;9.044;2023-08-24T05:01:23;6.22;;;5.43;;
69083;SDS011;56185;48.526;9.044;2023-08-24T05:03:48;7.78;;;5.75;;
69083;SDS011;56185;48.526;9.044;2023-08-24T05:06:14;7.77;;;6.10;;
69083;SDS011;56185;48.526;9.044;2023-08-24T05:08:39;7.90;;;5.60;;
69083;SDS011;56185;48.526;9.044;2023-08-24T05:11:17;8.33;;;5.43;;
69083;SDS011;56185;48.526;9.044;2023-08-24T05:13:43;7.65;;;5.65;;
69083;SDS011;56185;48.526;9.044;2023-08-24T05:16:09;9.93;;;5.82;;
69083;SDS011;56185;48.526;9.044;2023-08-24T05:18:35;13.35;;;5.57;;
69083;SDS011;56185;48.526;9.044;2023-08-24T05:21:00;6.97;;;5.10;;
69083;SDS011;56185;48.526;9.044;2023-08-24T05:23:25;8.13;;;5.17;;
69083;SDS011;56185;48.526;9.044;2023-08-24T05:25:51;8.70;;;5.57;;
69083;SDS011;56185;48.526;9.044;2023-08-24T05:28:16;6.13;;;5.27;;
69083;SDS011;56185;48.526;9.044;2023-08-24T05:30:41;6.33;;;5.03;;
69083;SDS011;56185;48.526;9.044;2023-08-24T05:33:06;7.60;;;5.03;;
69083;SDS011;56185;48.526;9.044;2023-08-24T05:35:32;8.80;;;5.37;;
69083;SDS011;56185;48.526;9.044;2023-08-24T05:37:57;9.27;;;5.20;;
69083;SDS011;56185;48.526;9.044;2023-08-24T05:40:22;6.30;;;5.07;;
69083;SDS011;56185;48.526;9.044;2023-08-24T05:42:47;8.33;;;5.40;;
69083;SDS011;56185;48.526;9.044;2023-08-24T05:45:13;6.53;;;5.23;;
69083;SDS011;56185;48.526;9.044;2023-08-24T05:47:38;7.70;;;5.57;;
69083;SDS011;56185;48.526;9.044;2023-08-24T05:50:03;9.20;;;5.40;;
69083;SDS011;56185;48.526;9.044;2023-08-24T05:52:29;9.02;;;5.60;;
69083;SDS011;56185;48.526;9.044;2023-08-24T05:54:54;6.93;;;5.73;;
69083;SDS011;56185;48.526;9.044;2023-08-24T05:57:19;7.93;;;5.60;;
69083;SDS011;56185;48.526;9.044;2023-08-24T05:59:44;6.57;;;5.47;;
69083;SDS011;56185;48.526;9.044;2023-08-24T06:02:10;7.80;;;5.50;;
69083;SDS011;56185;48.526;9.044;2023-08-24T06:04:35;9.47;;;5.37;;
69083;SDS011;56185;48.526;9.044;2023-08-24T06:07:00;7.30;;;5.60;;
69083;SDS011;56185;48.526;9.044;2023-08-24T06:09:25;7.83;;;5.50;;
69083;SDS011;56185;48.526;9.044;2023-08-24T06:11:51;8.90;;;5.77;;
69083;SDS011;56185;48.526;9.044;2023-08-24T06:14:16;6.30;;;5.70;;
69083;SDS011;56185;48.526;9.044;2023-08-24T06:16:41;8.50;;;5.90;;
69083;SDS011;56185;48.526;9.044;2023-08-24T06:19:06;8.27;;;5.73;;
69083;SDS011;56185;48.526;9.044;2023-08-24T06:21:32;6.20;;;5.60;;
69083;SDS011;56185;48.526;9.044;2023-08-24T06:23:57;6.67;;;5.50;;
69083;SDS011;56185;48.526;9.044;2023-08-24T06:26:22;7.75;;;5.78;;
69083;SDS011;56185;48.526;9.044;2023-08-24T06:28:47;11.27;;;5.63;;
69083;SDS011;56185;48.526;9.044;2023-08-24T06:31:13;9.25;;;5.45;;
69083;SDS011;56185;48.526;9.044;2023-08-24T06:33:38;7.03;;;5.80;;
69083;SDS011;56185;48.526;9.044;2023-08-24T06:36:03;8.57;;;5.82;;
69083;SDS011;56185;48.526;9.044;2023-08-24T06:38:29;8.20;;;5.70;;
69083;SDS011;56185;48.526;9.044;2023-08-24T06:40:54;10.27;;;6.40;;
69083;SDS011;56185;48.526;9.044;2023-08-24T06:43:20;11.83;;;6.50;;
69083;SDS011;56185;48.526;9.044;2023-08-24T06:45:45;8.52;;;6.45;;
69083;SDS011;56185;48.526;9.044;2023-08-24T06:48:10;12.60;;;7.13;;
69083;SDS011;56185;48.526;9.044;2023-08-24T06:50:36;9.67;;;7.20;;
69083;SDS011;56185;48.526;9.044;2023-08-24T06:53:01;12.98;;;8.20;;
69083;SDS011;56185;48.526;9.044;2023-08-24T06:55:27;10.60;;;7.85;;
69083;SDS011;56185;48.526;9.044;2023-08-24T06:57:52;13.30;;;8.53;;
69083;SDS011;56185;48.526;9.044;2023-08-24T07:00:18;12.15;;;8.68;;
69083;SDS011;56185;48.526;9.044;2023-08-24T07:02:44;9.00;;;6.82;;
69083;SDS011;56185;48.526;9.044;2023-08-24T07:05:09;8.77;;;6.27;;
69083;SDS011;56185;48.526;9.044;2023-08-24T07:07:34;7.87;;;6.47;;
69083;SDS011;56185;48.526;9.044;2023-08-24T07:10:00;11.70;;;6.50;;
69083;SDS011;56185;48.526;9.044;2023-08-24T07:12:26;11.38;;;6.30;;
69083;SDS011;56185;48.526;9.044;2023-08-24T07:14:51;10.83;;;6.43;;
69083;SDS011;56185;48.526;9.044;2023-08-24T07:17:16;7.07;;;5.53;;
69083;SDS011;56185;48.526;9.044;2023-08-24T07:19:41;11.33;;;6.53;;
69083;SDS011;56185;48.526;9.044;2023-08-24T07:22:07;6.20;;;5.57;;
69083;SDS011;56185;48.526;9.044;2023-08-24T07:24:32;8.43;;;6.10;;
69083;SDS011;56185;48.526;9.044;2023-08-24T07:26:57;9.10;;;5.80;;
69083;SDS011;56185;48.526;9.044;2023-08-24T07:29:22;9.23;;;5.73;;
69083;SDS011;56185;48.526;9.044;2023-08-24T07:31:47;8.50;;;5.60;;
69083;SDS011;56185;48.526;9.044;2023-08-24T07:34:13;7.70;;;5.60;;
69083;SDS011;56185;48.526;9.044;2023-08-24T07:36:39;7.32;;;5.80;;
69083;SDS011;56185;48.526;9.044;2023-08-24T07:39:04;9.53;;;5.73;;
69083;SDS011;56185;48.526;9.044;2023-08-24T07:41:30;8.03;;;5.87;;
69083;SDS011;56185;48.526;9.044;2023-08-24T07:43:55;7.13;;;5.50;;
69083;SDS011;56185;48.526;9.044;2023-08-24T07:46:20;8.23;;;6.07;;
69083;SDS011;56185;48.526;9.044;2023-08-24T07:48:45;7.57;;;5.97;;
69083;SDS011;56185;48.526;9.044;2023-08-24T07:51:11;9.67;;;5.77;;
69083;SDS011;56185;48.526;9.044;2023-08-24T07:53:36;7.87;;;5.93;;
69083;SDS011;56185;48.526;9.044;2023-08-24T07:56:01;8.03;;;6.17;;
69083;SDS011;56185;48.526;9.044;2023-08-24T07:58:27;8.25;;;5.70;;
69083;SDS011;56185;48.526;9.044;2023-08-24T08:00:52;8.13;;;5.95;;
69083;SDS011;56185;48.526;9.044;2023-08-24T08:03:18;8.25;;;5.72;;
69083;SDS011;56185;48.526;9.044;2023-08-24T08:05:44;11.48;;;6.05;;
69083;SDS011;56185;48.526;9.044;2023-08-24T08:08:10;11.55;;;5.60;;
69083;SDS011;56185;48.526;9.044;2023-08-24T08:10:35;6.93;;;5.67;;
69083;SDS011;56185;48.526;9.044;2023-08-24T08:13:00;10.53;;;6.57;;
69083;SDS011;56185;48.526;9.044;2023-08-24T08:15:26;9.47;;;5.83;;
69083;SDS011;56185;48.526;9.044;2023-08-24T08:17:51;8.83;;;5.83;;
69083;SDS011;56185;48.526;9.044;2023-08-24T08:20:16;9.23;;;5.40;;
69083;SDS011;56185;48.526;9.044;2023-08-24T08:22:41;9.67;;;5.70;;
69083;SDS011;56185;48.526;9.044;2023-08-24T08:25:07;9.73;;;5.97;;
69083;SDS011;56185;48.526;9.044;2023-08-24T08:27:32;9.50;;;5.78;;
69083;SDS011;56185;48.526;9.044;2023-08-24T08:29:57;6.65;;;5.00;;
69083;SDS011;56185;48.526;9.044;2023-08-24T08:32:23;8.03;;;5.40;;
69083;SDS011;56185;48.526;9.044;2023-08-24T08:34:48;5.77;;;5.10;;
69083;SDS011;56185;48.526;9.044;2023-08-24T08:37:13;5.90;;;4.93;;
69083;SDS011;56185;48.526;9.044;2023-08-24T08:39:38;9.03;;;5.37;;
69083;SDS011;56185;48.526;9.044;2023-08-24T08:42:04;7.40;;;5.20;;
69083;SDS011;56185;48.526;9.044;2023-08-24T08:44:32;9.00;;;5.10;;
69083;SDS011;56185;48.526;9.044;2023-08-24T08:46:58;7.05;;;4.90;;
69083;SDS011;56185;48.526;9.044;2023-08-24T08:49:24;8.40;;;4.70;;
69083;SDS011;56185;48.526;9.044;2023-08-24T08:51:49;9.07;;;4.75;;
69083;SDS011;56185;48.526;9.044;2023-08-24T08:54:15;6.78;;;5.05;;
69083;SDS011;56185;48.526;9.044;2023-08-24T08:56:40;8.50;;;4.77;;
69083;SDS011;56185;48.526;9.044;2023-08-24T08:59:07;6.43;;;4.60;;
69083;SDS011;56185;48.526;9.044;2023-08-24T09:01:34;7.10;;;4.38;;
69083;SDS011;56185;48.526;9.044;2023-08-24T09:06:29;8.65;;;4.40;;
69083;SDS011;56185;48.526;9.044;2023-08-24T09:08:55;5.90;;;4.40;;
69083;SDS011;56185;48.526;9.044;2023-08-24T09:11:21;6.20;;;4.25;;
69083;SDS011;56185;48.526;9.044;2023-08-24T09:13:48;8.35;;;4.40;;
69083;SDS011;56185;48.526;9.044;2023-08-24T09:16:13;5.50;;;4.13;;
69083;SDS011;56185;48.526;9.044;2023-08-24T09:18:39;5.10;;;4.00;;
69083;SDS011;56185;48.526;9.044;2023-08-24T09:21:09;7.65;;;4.40;;
69083;SDS011;56185;48.526;9.044;2023-08-24T09:23:37;8.30;;;4.28;;
69083;SDS011;56185;48.526;9.044;2023-08-24T09:26:03;8.23;;;3.92;;
69083;SDS011;56185;48.526;9.044;2023-08-24T09:28:29;6.53;;;4.25;;
69083;SDS011;56185;48.526;9.044;2023-08-24T09:30:54;7.63;;;4.17;;
69083;SDS011;56185;48.526;9.044;2023-08-24T09:33:26;6.00;;;4.10;;
69083;SDS011;56185;48.526;9.044;2023-08-24T09:35:52;7.47;;;4.20;;
69083;SDS011;56185;48.526;9.044;2023-08-24T09:38:20;5.47;;;3.90;;
69083;SDS011;56185;48.526;9.044;2023-08-24T09:40:46;4.38;;;3.90;;
69083;SDS011;56185;48.526;9.044;2023-08-24T09:43:15;5.85;;;3.92;;
69083;SDS011;56185;48.526;9.044;2023-08-24T09:45:47;7.23;;;4.10;;
69083;SDS011;56185;48.526;9.044;2023-08-24T09:48:20;5.40;;;4.05;;
69083;SDS011;56185;48.526;9.044;2023-08-24T09:50:46;6.97;;;3.92;;
69083;SDS011;56185;48.526;9.044;2023-08-24T09:53:17;6.53;;;3.75;;
69083;SDS011;56185;48.526;9.044;2023-08-24T09:55:44;4.93;;;3.90;;
69083;SDS011;56185;48.526;9.044;2023-08-24T09:58:18;8.32;;;4.13;;
69083;SDS011;56185;48.526;9.044;2023-08-24T10:00:50;6.35;;;3.70;;
69083;SDS011;56185;48.526;9.044;2023-08-24T10:03:17;7.03;;;3.67;;
69083;SDS011;56185;48.526;9.044;2023-08-24T10:05:43;6.07;;;4.45;;
69083;SDS011;56185;48.526;9.044;2023-08-24T10:08:09;6.00;;;4.15;;
69083;SDS011;56185;48.526;9.044;2023-08-24T10:10:36;5.32;;;4.00;;
69083;SDS011;56185;48.526;9.044;2023-08-24T10:13:06;9.52;;;3.95;;
69083;SDS011;56185;48.526;9.044;2023-08-24T10:15:42;7.90;;;3.55;;
69083;SDS011;56185;48.526;9.044;2023-08-24T10:18:08;6.65;;;3.90;;
69083;SDS011;56185;48.526;9.044;2023-08-24T10:20:33;6.10;;;3.80;;
69083;SDS011;56185;48.526;9.044;2023-08-24T10:22:59;6.88;;;3.92;;
69083;SDS011;56185;48.526;9.044;2023-08-24T10:25:25;8.23;;;3.85;;
69083;SDS011;56185;48.526;9.044;2023-08-24T10:27:51;7.95;;;4.22;;
69083;SDS011;56185;48.526;9.044;2023-08-24T10:30:17;6.45;;;4.30;;
69083;SDS011;56185;48.526;9.044;2023-08-24T10:32:45;6.18;;;3.70;;
69083;SDS011;56185;48.526;9.044;2023-08-24T10:35:10;6.70;;;4.15;;
69083;SDS011;56185;48.526;9.044;2023-08-24T10:37:36;8.32;;;4.20;;
69083;SDS011;56185;48.526;9.044;2023-08-24T10:40:01;7.47;;;4.20;;
69083;SDS011;56185;48.526;9.044;2023-08-24T10:42:26;9.23;;;4.17;;
69083;SDS011;56185;48.526;9.044;2023-08-24T10:44:52;7.65;;;3.90;;
69083;SDS011;56185;48.526;9.044;2023-08-24T10:52:24;9.35;;;4.05;;
69083;SDS011;56185;48.526;9.044;2023-08-24T10:54:57;7.45;;;3.97;;
69083;SDS011;56185;48.526;9.044;2023-08-24T10:57:25;6.13;;;4.20;;
69083;SDS011;56185;48.526;9.044;2023-08-24T10:59:58;8.02;;;4.05;;
69083;SDS011;56185;48.526;9.044;2023-08-24T11:02:23;5.40;;;3.88;;
69083;SDS011;56185;48.526;9.044;2023-08-24T11:07:52;5.03;;;3.92;;
69083;SDS011;56185;48.526;9.044;2023-08-24T11:10:18;8.40;;;3.85;;
69083;SDS011;56185;48.526;9.044;2023-08-24T11:15:46;6.43;;;3.97;;
69083;SDS011;56185;48.526;9.044;2023-08-24T11:20:47;5.88;;;4.20;;
69083;SDS011;56185;48.526;9.044;2023-08-24T11:23:16;8.05;;;3.95;;
69083;SDS011;56185;48.526;9.044;2023-08-24T11:25:42;5.97;;;3.55;;
69083;SDS011;56185;48.526;9.044;2023-08-24T11:28:08;7.32;;;3.92;;
69083;SDS011;56185;48.526;9.044;2023-08-24T11:30:34;8.68;;;4.10;;
69083;SDS011;56185;48.526;9.044;2023-08-24T11:33:00;7.80;;;4.10;;
69083;SDS011;56185;48.526;9.044;2023-08-24T11:35:26;6.47;;;3.97;;
69083;SDS011;56185;48.526;9.044;2023-08-24T11:37:52;7.82;;;3.92;;
69083;SDS011;56185;48.526;9.044;2023-08-24T11:40:18;9.15;;;4.18;;
69083;SDS011;56185;48.526;9.044;2023-08-24T11:42:43;6.80;;;3.80;;
69083;SDS011;56185;48.526;9.044;2023-08-24T11:45:11;6.93;;;4.40;;
69083;SDS011;56185;48.526;9.044;2023-08-24T11:47:37;7.30;;;3.90;;
69083;SDS011;56185;48.526;9.044;2023-08-24T11:50:03;8.40;;;3.92;;
69083;SDS011;56185;48.526;9.044;2023-08-24T11:52:29;7.55;;;3.67;;
69083;SDS011;56185;48.526;9.044;2023-08-24T11:54:54;9.73;;;3.90;;
69083;SDS011;56185;48.526;9.044;2023-08-24T11:57:22;8.10;;;4.10;;
69083;SDS011;56185;48.526;9.044;2023-08-24T11:59:47;10.57;;;4.18;;
69083;SDS011;56185;48.526;9.044;2023-08-24T12:02:13;8.18;;;4.18;;
69083;SDS011;56185;48.526;9.044;2023-08-24T12:04:39;9.93;;;4.05;;
69083;SDS011;56185;48.526;9.044;2023-08-24T12:07:08;5.72;;;3.53;;
69083;SDS011;56185;48.526;9.044;2023-08-24T12:09:35;5.43;;;3.88;;
69083;SDS011;56185;48.526;9.044;2023-08-24T12:12:03;8.65;;;4.20;;
69083;SDS011;56185;48.526;9.044;2023-08-24T12:14:28;8.77;;;3.92;;
69083;SDS011;56185;48.526;9.044;2023-08-24T12:17:11;7.13;;;3.90;;
69083;SDS011;56185;48.526;9.044;2023-08-24T12:19:37;9.05;;;4.03;;
69083;SDS011;56185;48.526;9.044;2023-08-24T12:22:06;7.63;;;3.60;;
69083;SDS011;56185;48.526;9.044;2023-08-24T12:24:37;6.93;;;4.20;;
69083;SDS011;56185;48.526;9.044;2023-08-24T12:27:02;9.77;;;3.97;;
69083;SDS011;56185;48.526;9.044;2023-08-24T12:29:28;7.53;;;3.75;;
69083;SDS011;56185;48.526;9.044;2023-08-24T12:31:56;7.40;;;3.77;;
69083;SDS011;56185;48.526;9.044;2023-08-24T12:34:22;8.35;;;4.10;;
69083;SDS011;56185;48.526;9.044;2023-08-24T12:36:48;6.03;;;3.63;;
69083;SDS011;56185;48.526;9.044;2023-08-24T12:39:13;6.57;;;3.70;;
69083;SDS011;56185;48.526;9.044;2023-08-24T12:41:38;8.43;;;3.60;;
69083;SDS011;56185;48.526;9.044;2023-08-24T12:44:06;7.10;;;3.78;;
69083;SDS011;56185;48.526;9.044;2023-08-24T12:46:31;8.60;;;4.05;;
69083;SDS011;56185;48.526;9.044;2023-08-24T12:48:57;10.38;;;3.83;;
69083;SDS011;56185;48.526;9.044;2023-08-24T12:51:23;8.20;;;3.87;;
69083;SDS011;56185;48.526;9.044;2023-08-24T12:53:48;9.63;;;4.03;;
69083;SDS011;56185;48.526;9.044;2023-08-24T12:56:13;7.13;;;3.67;;
69083;SDS011;56185;48.526;9.044;2023-08-24T12:58:38;8.47;;;3.80;;
69083;SDS011;56185;48.526;9.044;2023-08-24T13:01:04;7.20;;;3.87;;
69083;SDS011;56185;48.526;9.044;2023-08-24T13:03:29;7.83;;;3.57;;
69083;SDS011;56185;48.526;9.044;2023-08-24T13:05:54;10.63;;;4.13;;
69083;SDS011;56185;48.526;9.044;2023-08-24T13:08:19;10.27;;;3.60;;
69083;SDS011;56185;48.526;9.044;2023-08-24T13:10:45;8.83;;;3.87;;
69083;SDS011;56185;48.526;9.044;2023-08-24T13:13:10;8.93;;;3.60;;
69083;SDS011;56185;48.526;9.044;2023-08-24T13:15:35;8.20;;;3.80;;
69083;SDS011;56185;48.526;9.044;2023-08-24T13:18:00;9.43;;;4.00;;
69083;SDS011;56185;48.526;9.044;2023-08-24T13:20:26;10.00;;;3.70;;
69083;SDS011;56185;48.526;9.044;2023-08-24T13:22:52;8.90;;;4.20;;
69083;SDS011;56185;48.526;9.044;2023-08-24T13:25:18;7.65;;;3.67;;
69083;SDS011;56185;48.526;9.044;2023-08-24T13:27:44;11.23;;;3.53;;
69083;SDS011;56185;48.526;9.044;2023-08-24T13:30:09;8.30;;;3.47;;
69083;SDS011;56185;48.526;9.044;2023-08-24T13:32:35;7.65;;;3.88;;
69083;SDS011;56185;48.526;9.044;2023-08-24T13:35:00;10.17;;;3.77;;
69083;SDS011;56185;48.526;9.044;2023-08-24T13:37:26;13.00;;;4.88;;
69083;SDS011;56185;48.526;9.044;2023-08-24T13:39:52;11.10;;;4.00;;
69083;SDS011;56185;48.526;9.044;2023-08-24T13:42:17;9.73;;;3.78;;
69083;SDS011;56185;48.526;9.044;2023-08-24T13:44:44;9.88;;;3.70;;
69083;SDS011;56185;48.526;9.044;2023-08-24T13:47:10;8.77;;;3.50;;
69083;SDS011;56185;48.526;9.044;2023-08-24T13:49:35;9.90;;;3.83;;
69083;SDS011;56185;48.526;9.044;2023-08-24T13:52:00;16.50;;;3.80;;
69083;SDS011;56185;48.526;9.044;2023-08-24T13:54:25;10.03;;;3.53;;
69083;SDS011;56185;48.526;9.044;2023-08-24T13:56:53;8.05;;;3.55;;
69083;SDS011;56185;48.526;9.044;2023-08-24T13:59:19;7.72;;;3.50;;
69083;SDS011;56185;48.526;9.044;2023-08-24T14:01:45;8.75;;;3.58;;
69083;SDS011;56185;48.526;9.044;2023-08-24T14:04:10;12.77;;;3.60;;
69083;SDS011;56185;48.526;9.044;2023-08-24T14:06:35;9.40;;;3.67;;
69083;SDS011;56185;48.526;9.044;2023-08-24T14:09:01;13.17;;;3.97;;
69083;SDS011;56185;48.526;9.044;2023-08-24T14:11:27;11.37;;;4.10;;
69083;SDS011;56185;48.526;9.044;2023-08-24T14:13:52;12.38;;;3.72;;
69083;SDS011;56185;48.526;9.044;2023-08-24T14:16:18;9.50;;;4.20;;
69083;SDS011;56185;48.526;9.044;2023-08-24T14:18:44;12.43;;;3.97;;
69083;SDS011;56185;48.526;9.044;2023-08-24T14:21:10;10.48;;;3.85;;
69083;SDS011;56185;48.526;9.044;2023-08-24T14:23:35;12.17;;;3.70;;
69083;SDS011;56185;48.526;9.044;2023-08-24T14:26:00;11.65;;;3.50;;
69083;SDS011;56185;48.526;9.044;2023-08-24T14:28:26;9.50;;;3.50;;
69083;SDS011;56185;48.526;9.044;2023-08-24T14:31:12;9.65;;;3.28;;
69083;SDS011;56185;48.526;9.044;2023-08-24T14:33:37;11.40;;;3.80;;
69083;SDS011;56185;48.526;9.044;2023-08-24T14:36:02;12.50;;;3.83;;
69083;SDS011;56185;48.526;9.044;2023-08-24T14:38:28;10.63;;;3.45;;
69083;SDS011;56185;48.526;9.044;2023-08-24T14:40:53;9.03;;;3.80;;
69083;SDS011;56185;48.526;9.044;2023-08-24T14:43:18;12.90;;;3.33;;
69083;SDS011;56185;48.526;9.044;2023-08-24T14:45:43;14.47;;;4.07;;
69083;SDS011;56185;48.526;9.044;2023-08-24T14:48:09;11.47;;;3.60;;
69083;SDS011;56185;48.526;9.044;2023-08-24T14:50:37;11.90;;;3.50;;
69083;SDS011;56185;48.526;9.044;2023-08-24T14:53:03;8.95;;;3.83;;
69083;SDS011;56185;48.526;9.044;2023-08-24T14:55:28;8.65;;;3.47;;
69083;SDS011;56185;48.526;9.044;2023-08-24T14:57:53;9.57;;;3.63;;
69083;SDS011;56185;48.526;9.044;2023-08-24T15:00:18;14.10;;;3.43;;
69083;SDS011;56185;48.526;9.044;2023-08-24T15:02:44;11.63;;;3.63;;